sensor_id;sensor_type;location;lat;lon;timestamp;pressure;altitude;pressure_sealevel;temperature;humidity
50268;BME280;36153;50.960;6.220;2023-07-08T00:01:56;100625.56;;;25.32;40.39
50268;BME280;36153;50.960;6.220;2023-07-08T00:04:57;100624.56;;;25.34;40.35
50268;BME280;36153;50.960;6.220;2023-07-08T00:07:57;100616.00;;;25.28;40.77
50268;BME280;36153;50.960;6.220;2023-07-08T00:10:58;100616.19;;;25.23;40.60
50268;BME280;36153;50.960;6.220;2023-07-08T00:13:58;100616.13;;;25.25;40.75
50268;BME280;36153;50.960;6.220;2023-07-08T00:16:58;100611.03;;;25.20;40.84
50268;BME280;36153;50.960;6.220;2023-07-08T00:19:58;100604.94;;;25.18;40.90
50268;BME280;36153;50.960;6.220;2023-07-08T00:22:59;100598.94;;;25.13;41.03
50268;BME280;36153;50.960;6.220;2023-07-08T00:26:01;100601.09;;;25.04;41.33
50268;BME280;36153;50.960;6.220;2023-07-08T00:29:02;100601.88;;;25.07;41.41
50268;BME280;36153;50.960;6.220;2023-07-08T00:32:09;100596.28;;;25.13;41.58
50268;BME280;36153;50.960;6.220;2023-07-08T00:35:10;100599.09;;;25.10;41.43
50268;BME280;36153;50.960;6.220;2023-07-08T00:38:14;100595.00;;;25.02;41.75
50268;BME280;36153;50.960;6.220;2023-07-08T00:41:23;100583.53;;;25.00;41.90
50268;BME280;36153;50.960;6.220;2023-07-08T00:44:25;100589.19;;;24.94;41.87
50268;BME280;36153;50.960;6.220;2023-07-08T00:47:26;100593.03;;;24.87;42.25
50268;BME280;36153;50.960;6.220;2023-07-08T00:50:26;100577.38;;;24.81;42.45
50268;BME280;36153;50.960;6.220;2023-07-08T00:59:47;100579.75;;;24.68;42.88
50268;BME280;36153;50.960;6.220;2023-07-08T01:02:52;100570.88;;;24.67;42.51
50268;BME280;36153;50.960;6.220;2023-07-08T01:05:56;100575.00;;;24.75;42.33
50268;BME280;36153;50.960;6.220;2023-07-08T01:09:02;100572.34;;;24.75;41.74
50268;BME280;36153;50.960;6.220;2023-07-08T01:12:06;100582.84;;;24.78;42.22
50268;BME280;36153;50.960;6.220;2023-07-08T01:15:09;100576.59;;;24.79;41.68
50268;BME280;36153;50.960;6.220;2023-07-08T01:18:12;100573.94;;;24.79;41.90
50268;BME280;36153;50.960;6.220;2023-07-08T01:24:33;100571.69;;;24.69;41.68
50268;BME280;36153;50.960;6.220;2023-07-08T01:27:35;100567.63;;;24.80;41.92
50268;BME280;36153;50.960;6.220;2023-07-08T01:30:37;100572.34;;;24.54;41.73
50268;BME280;36153;50.960;6.220;2023-07-08T01:33:37;100572.75;;;24.45;41.61
50268;BME280;36153;50.960;6.220;2023-07-08T01:36:40;100564.25;;;24.36;41.47
50268;BME280;36153;50.960;6.220;2023-07-08T01:39:43;100567.53;;;24.43;41.60
50268;BME280;36153;50.960;6.220;2023-07-08T01:42:43;100570.66;;;24.32;41.96
50268;BME280;36153;50.960;6.220;2023-07-08T01:45:43;100565.81;;;24.22;41.94
50268;BME280;36153;50.960;6.220;2023-07-08T01:48:56;100568.28;;;24.26;42.26
50268;BME280;36153;50.960;6.220;2023-07-08T01:51:57;100560.38;;;24.25;41.62
50268;BME280;36153;50.960;6.220;2023-07-08T01:54:57;100562.28;;;24.21;41.43
50268;BME280;36153;50.960;6.220;2023-07-08T01:57:58;100556.22;;;24.17;41.66
50268;BME280;36153;50.960;6.220;2023-07-08T02:00:58;100548.47;;;24.13;41.40
50268;BME280;36153;50.960;6.220;2023-07-08T02:03:59;100555.28;;;23.99;41.72
50268;BME280;36153;50.960;6.220;2023-07-08T02:07:00;100543.06;;;23.95;41.91
50268;BME280;36153;50.960;6.220;2023-07-08T02:10:00;100548.22;;;23.98;41.81
50268;BME280;36153;50.960;6.220;2023-07-08T02:13:00;100542.69;;;24.03;41.49
50268;BME280;36153;50.960;6.220;2023-07-08T02:16:01;100542.00;;;23.99;41.38
50268;BME280;36153;50.960;6.220;2023-07-08T02:19:01;100541.38;;;23.93;41.50
50268;BME280;36153;50.960;6.220;2023-07-08T02:22:01;100531.84;;;23.87;42.13
50268;BME280;36153;50.960;6.220;2023-07-08T02:25:02;100548.06;;;23.81;41.83
50268;BME280;36153;50.960;6.220;2023-07-08T02:28:03;100539.69;;;23.69;42.36
50268;BME280;36153;50.960;6.220;2023-07-08T02:31:04;100545.38;;;23.60;42.64
50268;BME280;36153;50.960;6.220;2023-07-08T02:34:04;100533.16;;;23.56;42.79
50268;BME280;36153;50.960;6.220;2023-07-08T02:37:05;100532.44;;;23.52;43.29
50268;BME280;36153;50.960;6.220;2023-07-08T02:40:05;100527.81;;;23.56;43.26
50268;BME280;36153;50.960;6.220;2023-07-08T02:43:06;100533.28;;;23.53;43.00
50268;BME280;36153;50.960;6.220;2023-07-08T02:46:06;100530.75;;;23.50;43.11
50268;BME280;36153;50.960;6.220;2023-07-08T02:49:07;100532.56;;;23.49;43.41
50268;BME280;36153;50.960;6.220;2023-07-08T02:52:08;100531.94;;;23.43;43.40
50268;BME280;36153;50.960;6.220;2023-07-08T02:55:08;100536.28;;;23.45;42.95
50268;BME280;36153;50.960;6.220;2023-07-08T02:58:09;100526.63;;;23.43;43.26
50268;BME280;36153;50.960;6.220;2023-07-08T03:01:10;100536.44;;;23.41;43.09
50268;BME280;36153;50.960;6.220;2023-07-08T03:04:10;100540.22;;;23.35;43.26
50268;BME280;36153;50.960;6.220;2023-07-08T03:07:14;100541.22;;;23.32;42.95
50268;BME280;36153;50.960;6.220;2023-07-08T03:10:14;100541.47;;;23.26;43.38
50268;BME280;36153;50.960;6.220;2023-07-08T03:13:14;100532.19;;;23.14;43.73
50268;BME280;36153;50.960;6.220;2023-07-08T03:16:15;100538.53;;;23.12;44.06
50268;BME280;36153;50.960;6.220;2023-07-08T03:19:15;100535.88;;;23.12;43.44
50268;BME280;36153;50.960;6.220;2023-07-08T03:22:17;100545.13;;;23.00;44.34
50268;BME280;36153;50.960;6.220;2023-07-08T03:25:17;100542.03;;;22.89;44.72
50268;BME280;36153;50.960;6.220;2023-07-08T03:28:19;100546.59;;;22.85;44.58
50268;BME280;36153;50.960;6.220;2023-07-08T03:31:20;100539.81;;;22.78;44.82
50268;BME280;36153;50.960;6.220;2023-07-08T03:34:20;100548.53;;;22.81;44.76
50268;BME280;36153;50.960;6.220;2023-07-08T03:37:21;100545.06;;;22.79;44.63
50268;BME280;36153;50.960;6.220;2023-07-08T03:40:21;100550.53;;;22.75;44.90
50268;BME280;36153;50.960;6.220;2023-07-08T03:43:21;100540.63;;;22.80;44.78
50268;BME280;36153;50.960;6.220;2023-07-08T03:46:22;100545.69;;;22.86;44.98
50268;BME280;36153;50.960;6.220;2023-07-08T03:49:23;100549.25;;;22.85;45.04
50268;BME280;36153;50.960;6.220;2023-07-08T03:52:24;100545.06;;;23.01;44.76
50268;BME280;36153;50.960;6.220;2023-07-08T03:55:24;100551.06;;;22.84;45.15
50268;BME280;36153;50.960;6.220;2023-07-08T03:58:25;100547.28;;;22.90;45.30
50268;BME280;36153;50.960;6.220;2023-07-08T04:01:25;100546.81;;;23.02;45.19
50268;BME280;36153;50.960;6.220;2023-07-08T04:04:26;100547.22;;;23.15;44.98
50268;BME280;36153;50.960;6.220;2023-07-08T04:07:26;100547.47;;;23.31;44.22
50268;BME280;36153;50.960;6.220;2023-07-08T04:10:26;100544.19;;;23.47;44.22
50268;BME280;36153;50.960;6.220;2023-07-08T04:13:27;100551.88;;;23.53;44.45
50268;BME280;36153;50.960;6.220;2023-07-08T04:16:48;100543.78;;;23.56;44.33
50268;BME280;36153;50.960;6.220;2023-07-08T04:19:51;100548.22;;;23.56;43.73
50268;BME280;36153;50.960;6.220;2023-07-08T04:22:51;100548.78;;;23.64;43.61
50268;BME280;36153;50.960;6.220;2023-07-08T04:25:54;100549.56;;;23.66;43.43
50268;BME280;36153;50.960;6.220;2023-07-08T04:28:55;100550.31;;;23.69;43.75
50268;BME280;36153;50.960;6.220;2023-07-08T04:31:56;100544.69;;;23.77;43.63
50268;BME280;36153;50.960;6.220;2023-07-08T04:34:56;100549.66;;;23.85;43.75
50268;BME280;36153;50.960;6.220;2023-07-08T04:37:56;100549.44;;;23.91;43.39
50268;BME280;36153;50.960;6.220;2023-07-08T04:40:57;100543.84;;;23.97;43.47
50268;BME280;36153;50.960;6.220;2023-07-08T04:43:57;100556.22;;;24.17;42.92
50268;BME280;36153;50.960;6.220;2023-07-08T04:47:00;100553.06;;;24.49;42.80
50268;BME280;36153;50.960;6.220;2023-07-08T04:50:01;100560.81;;;24.53;41.65
50268;BME280;36153;50.960;6.220;2023-07-08T04:53:01;100564.13;;;24.79;41.15
50268;BME280;36153;50.960;6.220;2023-07-08T04:56:02;100565.91;;;24.98;41.27
50268;BME280;36153;50.960;6.220;2023-07-08T04:59:03;100570.56;;;25.12;41.37
50268;BME280;36153;50.960;6.220;2023-07-08T05:02:04;100572.47;;;25.10;41.34
50268;BME280;36153;50.960;6.220;2023-07-08T05:05:05;100564.75;;;25.03;41.82
50268;BME280;36153;50.960;6.220;2023-07-08T05:08:06;100561.47;;;24.98;42.32
50268;BME280;36153;50.960;6.220;2023-07-08T05:11:06;100560.22;;;24.86;42.21
50268;BME280;36153;50.960;6.220;2023-07-08T05:14:06;100556.91;;;24.81;42.17
50268;BME280;36153;50.960;6.220;2023-07-08T05:17:07;100554.47;;;24.77;42.07
50268;BME280;36153;50.960;6.220;2023-07-08T05:20:10;100554.31;;;24.80;42.21
50268;BME280;36153;50.960;6.220;2023-07-08T05:23:11;100561.94;;;25.07;41.85
50268;BME280;36153;50.960;6.220;2023-07-08T05:26:11;100559.69;;;25.35;41.11
50268;BME280;36153;50.960;6.220;2023-07-08T05:29:11;100552.81;;;25.49;41.18
50268;BME280;36153;50.960;6.220;2023-07-08T05:32:12;100544.81;;;25.66;40.67
50268;BME280;36153;50.960;6.220;2023-07-08T05:35:12;100549.22;;;25.85;40.82
50268;BME280;36153;50.960;6.220;2023-07-08T05:38:13;100550.19;;;26.01;40.27
50268;BME280;36153;50.960;6.220;2023-07-08T05:41:13;100558.03;;;26.04;40.19
50268;BME280;36153;50.960;6.220;2023-07-08T05:44:13;100557.22;;;26.02;40.56
50268;BME280;36153;50.960;6.220;2023-07-08T05:47:14;100551.34;;;25.78;41.01
50268;BME280;36153;50.960;6.220;2023-07-08T05:50:15;100548.19;;;25.70;40.97
50268;BME280;36153;50.960;6.220;2023-07-08T05:53:18;100548.44;;;25.65;41.58
50268;BME280;36153;50.960;6.220;2023-07-08T05:56:18;100547.09;;;25.74;42.16
50268;BME280;36153;50.960;6.220;2023-07-08T05:59:18;100542.28;;;25.98;41.23
50268;BME280;36153;50.960;6.220;2023-07-08T06:02:19;100557.50;;;26.31;40.29
50268;BME280;36153;50.960;6.220;2023-07-08T06:05:25;100559.47;;;26.61;39.56
50268;BME280;36153;50.960;6.220;2023-07-08T06:08:25;100554.16;;;26.77;39.53
50268;BME280;36153;50.960;6.220;2023-07-08T06:11:26;100560.09;;;26.98;39.10
50268;BME280;36153;50.960;6.220;2023-07-08T06:14:27;100551.38;;;27.11;38.88
50268;BME280;36153;50.960;6.220;2023-07-08T06:17:27;100555.28;;;27.37;38.75
50268;BME280;36153;50.960;6.220;2023-07-08T06:20:28;100565.66;;;27.57;38.15
50268;BME280;36153;50.960;6.220;2023-07-08T06:23:28;100568.25;;;27.59;37.95
50268;BME280;36153;50.960;6.220;2023-07-08T06:26:29;100564.84;;;27.71;37.84
50268;BME280;36153;50.960;6.220;2023-07-08T06:29:29;100572.69;;;27.89;37.58
50268;BME280;36153;50.960;6.220;2023-07-08T06:32:29;100574.13;;;28.10;37.11
50268;BME280;36153;50.960;6.220;2023-07-08T06:35:30;100566.50;;;28.19;36.46
50268;BME280;36153;50.960;6.220;2023-07-08T06:38:30;100569.16;;;28.33;35.95
50268;BME280;36153;50.960;6.220;2023-07-08T06:41:31;100573.16;;;28.40;35.88
50268;BME280;36153;50.960;6.220;2023-07-08T06:44:31;100573.50;;;28.65;35.48
50268;BME280;36153;50.960;6.220;2023-07-08T06:47:31;100575.47;;;28.75;35.06
50268;BME280;36153;50.960;6.220;2023-07-08T06:50:32;100584.94;;;28.95;35.14
50268;BME280;36153;50.960;6.220;2023-07-08T06:53:32;100582.91;;;28.99;34.88
50268;BME280;36153;50.960;6.220;2023-07-08T06:56:32;100577.69;;;28.83;35.59
50268;BME280;36153;50.960;6.220;2023-07-08T06:59:33;100579.13;;;29.16;35.89
50268;BME280;36153;50.960;6.220;2023-07-08T07:02:34;100576.53;;;29.69;34.99
50268;BME280;36153;50.960;6.220;2023-07-08T07:05:34;100570.16;;;29.98;34.43
50268;BME280;36153;50.960;6.220;2023-07-08T07:08:35;100568.44;;;30.35;33.80
50268;BME280;36153;50.960;6.220;2023-07-08T07:11:35;100566.53;;;30.37;33.63
50268;BME280;36153;50.960;6.220;2023-07-08T07:14:35;100568.56;;;30.46;33.72
50268;BME280;36153;50.960;6.220;2023-07-08T07:17:35;100566.31;;;30.27;33.92
50268;BME280;36153;50.960;6.220;2023-07-08T07:20:37;100562.25;;;30.22;33.57
50268;BME280;36153;50.960;6.220;2023-07-08T07:23:38;100564.81;;;30.36;33.54
50268;BME280;36153;50.960;6.220;2023-07-08T07:26:38;100564.19;;;30.45;33.37
50268;BME280;36153;50.960;6.220;2023-07-08T07:29:50;100562.00;;;30.63;33.27
50268;BME280;36153;50.960;6.220;2023-07-08T07:32:50;100548.44;;;30.78;33.08
50268;BME280;36153;50.960;6.220;2023-07-08T07:35:51;100546.88;;;30.87;33.00
50268;BME280;36153;50.960;6.220;2023-07-08T07:38:51;100552.94;;;31.14;32.64
50268;BME280;36153;50.960;6.220;2023-07-08T07:41:51;100563.00;;;31.24;32.08
50268;BME280;36153;50.960;6.220;2023-07-08T07:44:52;100564.72;;;31.49;32.01
50268;BME280;36153;50.960;6.220;2023-07-08T07:47:52;100565.09;;;31.56;32.00
50268;BME280;36153;50.960;6.220;2023-07-08T07:50:53;100565.97;;;31.80;31.77
50268;BME280;36153;50.960;6.220;2023-07-08T07:53:53;100567.59;;;32.06;31.93
50268;BME280;36153;50.960;6.220;2023-07-08T07:56:54;100564.28;;;32.13;31.66
50268;BME280;36153;50.960;6.220;2023-07-08T07:59:54;100557.25;;;32.35;31.32
50268;BME280;36153;50.960;6.220;2023-07-08T08:02:54;100568.38;;;32.64;30.75
50268;BME280;36153;50.960;6.220;2023-07-08T08:05:55;100563.72;;;32.55;30.71
50268;BME280;36153;50.960;6.220;2023-07-08T08:08:55;100569.22;;;32.65;30.35
50268;BME280;36153;50.960;6.220;2023-07-08T08:11:57;100567.63;;;32.96;30.35
50268;BME280;36153;50.960;6.220;2023-07-08T08:14:58;100562.31;;;33.06;30.20
50268;BME280;36153;50.960;6.220;2023-07-08T08:17:58;100566.69;;;33.18;29.97
50268;BME280;36153;50.960;6.220;2023-07-08T08:20:59;100560.41;;;33.41;29.85
50268;BME280;36153;50.960;6.220;2023-07-08T08:23:59;100555.69;;;33.75;29.40
50268;BME280;36153;50.960;6.220;2023-07-08T08:27:00;100562.22;;;33.94;28.93
50268;BME280;36153;50.960;6.220;2023-07-08T08:30:01;100557.72;;;34.04;28.94
50268;BME280;36153;50.960;6.220;2023-07-08T08:33:01;100565.50;;;34.18;28.87
50268;BME280;36153;50.960;6.220;2023-07-08T08:36:03;100571.47;;;34.22;29.03
50268;BME280;36153;50.960;6.220;2023-07-08T08:39:03;100574.50;;;34.60;28.17
50268;BME280;36153;50.960;6.220;2023-07-08T08:42:04;100576.66;;;34.66;28.40
50268;BME280;36153;50.960;6.220;2023-07-08T08:45:07;100573.41;;;34.72;27.88
50268;BME280;36153;50.960;6.220;2023-07-08T08:48:11;100576.63;;;34.87;28.27
50268;BME280;36153;50.960;6.220;2023-07-08T08:51:15;100571.22;;;34.97;27.75
50268;BME280;36153;50.960;6.220;2023-07-08T08:54:16;100577.19;;;35.10;27.53
50268;BME280;36153;50.960;6.220;2023-07-08T08:57:32;100577.94;;;35.22;27.52
50268;BME280;36153;50.960;6.220;2023-07-08T09:00:53;100577.53;;;35.56;27.42
50268;BME280;36153;50.960;6.220;2023-07-08T09:03:59;100581.94;;;35.77;27.40
50268;BME280;36153;50.960;6.220;2023-07-08T09:07:08;100578.09;;;35.89;26.91
50268;BME280;36153;50.960;6.220;2023-07-08T09:10:42;100574.94;;;36.13;27.55
50268;BME280;36153;50.960;6.220;2023-07-08T09:13:44;100577.81;;;35.92;27.59
50268;BME280;36153;50.960;6.220;2023-07-08T09:16:52;100585.69;;;35.85;27.20
50268;BME280;36153;50.960;6.220;2023-07-08T09:23:11;100577.66;;;35.94;27.30
50268;BME280;36153;50.960;6.220;2023-07-08T09:26:22;100577.53;;;35.95;27.02
50268;BME280;36153;50.960;6.220;2023-07-08T09:29:24;100577.28;;;36.36;27.03
50268;BME280;36153;50.960;6.220;2023-07-08T09:32:27;100573.25;;;36.50;26.82
50268;BME280;36153;50.960;6.220;2023-07-08T09:35:38;100572.72;;;36.64;27.58
50268;BME280;36153;50.960;6.220;2023-07-08T09:38:38;100568.25;;;37.01;26.70
50268;BME280;36153;50.960;6.220;2023-07-08T09:41:39;100564.34;;;37.31;26.74
50268;BME280;36153;50.960;6.220;2023-07-08T09:44:40;100566.53;;;37.28;26.05
50268;BME280;36153;50.960;6.220;2023-07-08T09:47:43;100562.69;;;37.20;26.39
50268;BME280;36153;50.960;6.220;2023-07-08T09:50:47;100564.38;;;37.21;26.58
50268;BME280;36153;50.960;6.220;2023-07-08T09:53:48;100561.47;;;37.33;26.50
50268;BME280;36153;50.960;6.220;2023-07-08T09:57:01;100566.19;;;37.67;25.85
50268;BME280;36153;50.960;6.220;2023-07-08T10:00:08;100564.28;;;37.85;25.65
50268;BME280;36153;50.960;6.220;2023-07-08T10:03:19;100557.53;;;38.16;25.54
50268;BME280;36153;50.960;6.220;2023-07-08T10:06:30;100552.66;;;38.28;26.05
50268;BME280;36153;50.960;6.220;2023-07-08T10:09:33;100548.81;;;38.12;25.57
50268;BME280;36153;50.960;6.220;2023-07-08T10:12:35;100550.38;;;38.41;24.36
50268;BME280;36153;50.960;6.220;2023-07-08T10:15:44;100556.78;;;38.32;24.32
50268;BME280;36153;50.960;6.220;2023-07-08T10:18:47;100563.00;;;38.50;24.29
50268;BME280;36153;50.960;6.220;2023-07-08T10:22:30;100548.81;;;38.73;26.33
50268;BME280;36153;50.960;6.220;2023-07-08T10:25:34;100547.53;;;38.59;24.81
50268;BME280;36153;50.960;6.220;2023-07-08T10:32:18;100549.44;;;39.26;24.13
50268;BME280;36153;50.960;6.220;2023-07-08T10:35:27;100550.31;;;39.26;23.40
50268;BME280;36153;50.960;6.220;2023-07-08T10:39:00;100551.31;;;39.34;22.73
50268;BME280;36153;50.960;6.220;2023-07-08T10:45:53;100554.00;;;39.91;22.69
50268;BME280;36153;50.960;6.220;2023-07-08T10:52:35;100550.72;;;40.21;22.51
50268;BME280;36153;50.960;6.220;2023-07-08T10:55:59;100555.25;;;40.45;22.24
50268;BME280;36153;50.960;6.220;2023-07-08T11:02:36;100551.47;;;40.46;22.05
50268;BME280;36153;50.960;6.220;2023-07-08T11:05:44;100546.34;;;40.59;21.89
50268;BME280;36153;50.960;6.220;2023-07-08T11:08:51;100547.88;;;40.62;20.90
50268;BME280;36153;50.960;6.220;2023-07-08T11:12:08;100541.41;;;40.86;20.74
50268;BME280;36153;50.960;6.220;2023-07-08T11:15:19;100537.94;;;40.69;19.31
50268;BME280;36153;50.960;6.220;2023-07-08T11:21:52;100540.75;;;41.31;20.40
50268;BME280;36153;50.960;6.220;2023-07-08T11:24:55;100551.13;;;41.58;20.60
50268;BME280;36153;50.960;6.220;2023-07-08T11:28:03;100541.44;;;41.56;20.19
50268;BME280;36153;50.960;6.220;2023-07-08T11:31:05;100546.06;;;41.55;21.10
50268;BME280;36153;50.960;6.220;2023-07-08T11:34:08;100537.69;;;41.72;20.14
50268;BME280;36153;50.960;6.220;2023-07-08T11:37:12;100540.97;;;41.52;20.53
50268;BME280;36153;50.960;6.220;2023-07-08T11:40:23;100532.78;;;41.67;19.82
50268;BME280;36153;50.960;6.220;2023-07-08T11:43:26;100527.31;;;41.52;20.10
50268;BME280;36153;50.960;6.220;2023-07-08T11:46:30;100528.63;;;41.71;19.66
50268;BME280;36153;50.960;6.220;2023-07-08T11:49:31;100530.72;;;41.69;19.90
50268;BME280;36153;50.960;6.220;2023-07-08T11:52:33;100520.97;;;41.90;19.36
50268;BME280;36153;50.960;6.220;2023-07-08T11:55:56;100520.59;;;42.08;19.07
50268;BME280;36153;50.960;6.220;2023-07-08T11:59:13;100528.25;;;42.27;17.91
50268;BME280;36153;50.960;6.220;2023-07-08T12:02:19;100523.59;;;42.13;18.27
50268;BME280;36153;50.960;6.220;2023-07-08T12:05:37;100520.22;;;42.26;18.63
50268;BME280;36153;50.960;6.220;2023-07-08T12:08:38;100515.50;;;42.35;17.48
50268;BME280;36153;50.960;6.220;2023-07-08T12:11:47;100515.38;;;42.43;17.24
50268;BME280;36153;50.960;6.220;2023-07-08T12:14:47;100508.59;;;42.39;17.04
50268;BME280;36153;50.960;6.220;2023-07-08T12:17:49;100511.22;;;42.47;17.39
50268;BME280;36153;50.960;6.220;2023-07-08T12:20:54;100518.25;;;42.71;17.44
50268;BME280;36153;50.960;6.220;2023-07-08T12:23:55;100512.16;;;42.69;17.42
50268;BME280;36153;50.960;6.220;2023-07-08T12:27:03;100514.09;;;42.60;17.74
50268;BME280;36153;50.960;6.220;2023-07-08T12:30:03;100515.09;;;42.53;18.16
50268;BME280;36153;50.960;6.220;2023-07-08T12:33:13;100513.38;;;42.88;16.91
50268;BME280;36153;50.960;6.220;2023-07-08T12:36:25;100510.69;;;43.10;17.22
50268;BME280;36153;50.960;6.220;2023-07-08T12:39:32;100504.38;;;43.38;16.88
50268;BME280;36153;50.960;6.220;2023-07-08T12:42:34;100502.41;;;43.31;16.72
50268;BME280;36153;50.960;6.220;2023-07-08T12:45:34;100503.16;;;43.19;17.22
50268;BME280;36153;50.960;6.220;2023-07-08T12:48:36;100496.03;;;43.24;16.39
50268;BME280;36153;50.960;6.220;2023-07-08T12:51:37;100495.13;;;43.67;16.34
50268;BME280;36153;50.960;6.220;2023-07-08T12:54:37;100496.16;;;43.66;16.94
50268;BME280;36153;50.960;6.220;2023-07-08T12:57:40;100497.84;;;43.89;16.49
50268;BME280;36153;50.960;6.220;2023-07-08T13:00:42;100501.81;;;43.58;16.20
50268;BME280;36153;50.960;6.220;2023-07-08T13:03:45;100496.47;;;43.78;16.00
50268;BME280;36153;50.960;6.220;2023-07-08T13:06:47;100496.19;;;43.94;16.37
50268;BME280;36153;50.960;6.220;2023-07-08T13:09:48;100496.69;;;43.83;16.72
50268;BME280;36153;50.960;6.220;2023-07-08T13:12:59;100494.81;;;43.55;15.64
50268;BME280;36153;50.960;6.220;2023-07-08T13:16:02;100493.31;;;44.16;16.27
50268;BME280;36153;50.960;6.220;2023-07-08T13:19:03;100502.41;;;44.72;15.85
50268;BME280;36153;50.960;6.220;2023-07-08T13:22:04;100504.34;;;44.85;15.25
50268;BME280;36153;50.960;6.220;2023-07-08T13:25:13;100503.09;;;43.12;16.56
50268;BME280;36153;50.960;6.220;2023-07-08T13:28:22;100504.31;;;41.76;18.73
50268;BME280;36153;50.960;6.220;2023-07-08T13:31:23;100500.94;;;42.34;18.38
50268;BME280;36153;50.960;6.220;2023-07-08T13:34:24;100503.97;;;43.62;16.33
50268;BME280;36153;50.960;6.220;2023-07-08T13:37:25;100509.03;;;43.94;15.86
50268;BME280;36153;50.960;6.220;2023-07-08T13:40:30;100505.44;;;42.93;16.23
50268;BME280;36153;50.960;6.220;2023-07-08T13:43:35;100504.94;;;42.02;16.25
50268;BME280;36153;50.960;6.220;2023-07-08T13:46:54;100503.56;;;40.83;15.60
50268;BME280;36153;50.960;6.220;2023-07-08T13:50:16;100504.09;;;40.78;18.17
50268;BME280;36153;50.960;6.220;2023-07-08T13:53:38;100512.94;;;40.81;19.50
50268;BME280;36153;50.960;6.220;2023-07-08T13:56:41;100504.94;;;40.48;18.83
50268;BME280;36153;50.960;6.220;2023-07-08T13:59:49;100503.94;;;40.80;18.32
50268;BME280;36153;50.960;6.220;2023-07-08T14:02:49;100505.72;;;40.88;19.36
50268;BME280;36153;50.960;6.220;2023-07-08T14:05:49;100507.41;;;40.66;18.99
50268;BME280;36153;50.960;6.220;2023-07-08T14:08:55;100505.53;;;40.66;20.50
50268;BME280;36153;50.960;6.220;2023-07-08T14:11:56;100515.50;;;40.59;19.73
50268;BME280;36153;50.960;6.220;2023-07-08T14:14:57;100514.53;;;40.75;19.62
50268;BME280;36153;50.960;6.220;2023-07-08T14:18:00;100515.22;;;41.00;19.72
50268;BME280;36153;50.960;6.220;2023-07-08T14:21:00;100517.88;;;41.32;18.97
50268;BME280;36153;50.960;6.220;2023-07-08T14:24:01;100519.19;;;41.44;18.55
50268;BME280;36153;50.960;6.220;2023-07-08T14:27:01;100517.78;;;41.25;18.06
50268;BME280;36153;50.960;6.220;2023-07-08T14:30:02;100526.03;;;41.40;19.36
50268;BME280;36153;50.960;6.220;2023-07-08T14:33:02;100518.06;;;41.53;19.05
50268;BME280;36153;50.960;6.220;2023-07-08T14:36:08;100521.66;;;41.31;19.39
50268;BME280;36153;50.960;6.220;2023-07-08T14:39:14;100520.22;;;41.43;19.85
50268;BME280;36153;50.960;6.220;2023-07-08T14:42:16;100521.13;;;41.35;18.66
50268;BME280;36153;50.960;6.220;2023-07-08T14:45:20;100531.91;;;41.28;18.39
50268;BME280;36153;50.960;6.220;2023-07-08T14:48:20;100528.44;;;41.73;18.31
50268;BME280;36153;50.960;6.220;2023-07-08T14:51:21;100537.69;;;41.72;18.18
50268;BME280;36153;50.960;6.220;2023-07-08T14:54:21;100533.53;;;41.61;17.69
50268;BME280;36153;50.960;6.220;2023-07-08T14:57:30;100532.03;;;41.73;17.89
50268;BME280;36153;50.960;6.220;2023-07-08T15:00:33;100530.50;;;41.56;17.92
50268;BME280;36153;50.960;6.220;2023-07-08T15:03:33;100536.97;;;41.55;16.97
50268;BME280;36153;50.960;6.220;2023-07-08T15:06:33;100544.47;;;41.61;17.36
50268;BME280;36153;50.960;6.220;2023-07-08T15:09:34;100544.19;;;41.33;18.04
50268;BME280;36153;50.960;6.220;2023-07-08T15:12:34;100539.97;;;40.99;18.89
50268;BME280;36153;50.960;6.220;2023-07-08T15:15:35;100542.25;;;40.55;19.44
50268;BME280;36153;50.960;6.220;2023-07-08T15:18:36;100541.53;;;40.22;20.10
50268;BME280;36153;50.960;6.220;2023-07-08T15:21:36;100550.63;;;40.06;19.86
50268;BME280;36153;50.960;6.220;2023-07-08T15:24:37;100550.63;;;40.06;19.44
50268;BME280;36153;50.960;6.220;2023-07-08T15:27:38;100545.44;;;40.19;19.66
50268;BME280;36153;50.960;6.220;2023-07-08T15:30:39;100551.81;;;39.87;19.88
50268;BME280;36153;50.960;6.220;2023-07-08T15:33:39;100553.38;;;39.81;20.52
50268;BME280;36153;50.960;6.220;2023-07-08T15:36:39;100538.91;;;39.56;22.13
50268;BME280;36153;50.960;6.220;2023-07-08T15:39:40;100549.44;;;39.42;21.85
50268;BME280;36153;50.960;6.220;2023-07-08T15:42:41;100550.56;;;38.90;22.77
50268;BME280;36153;50.960;6.220;2023-07-08T15:45:42;100550.81;;;38.63;23.28
50268;BME280;36153;50.960;6.220;2023-07-08T15:48:44;100552.56;;;38.80;22.89
50268;BME280;36153;50.960;6.220;2023-07-08T15:51:45;100552.53;;;38.72;23.07
50268;BME280;36153;50.960;6.220;2023-07-08T15:54:45;100540.34;;;38.84;23.03
50268;BME280;36153;50.960;6.220;2023-07-08T15:57:48;100535.63;;;39.03;22.46
50268;BME280;36153;50.960;6.220;2023-07-08T16:00:49;100539.34;;;39.02;22.73
50268;BME280;36153;50.960;6.220;2023-07-08T16:03:50;100540.09;;;39.29;22.63
50268;BME280;36153;50.960;6.220;2023-07-08T16:06:51;100540.28;;;39.60;22.30
50268;BME280;36153;50.960;6.220;2023-07-08T16:09:51;100544.00;;;39.84;22.39
50268;BME280;36153;50.960;6.220;2023-07-08T16:12:52;100540.72;;;39.97;22.60
50268;BME280;36153;50.960;6.220;2023-07-08T16:15:56;100543.47;;;40.05;22.79
50268;BME280;36153;50.960;6.220;2023-07-08T16:18:56;100539.97;;;40.27;22.33
50268;BME280;36153;50.960;6.220;2023-07-08T16:21:57;100548.91;;;40.05;22.64
50268;BME280;36153;50.960;6.220;2023-07-08T16:24:57;100546.38;;;39.87;22.64
50268;BME280;36153;50.960;6.220;2023-07-08T16:27:58;100553.88;;;39.52;23.36